Time;durP1;ratioP1;P1;durP2;ratioP2;P2;SDS_P1;SDS_P2;PMS_P1;PMS_P2;Temp;Humidity;BMP_temperature;BMP_pressure;BME280_temperature;BME280_humidity;BME280_pressure;Samples;Min_cycle;Max_cycle;Signal;HPM_P1;HPM_P2
2020/01/13 00:01:50;;;;;;;2.10;1.93;;;;;;;18.84;40.25;101595.72;;;;-50
2020/01/13 00:07:50;;;;;;;2.14;1.90;;;;;;;18.81;40.26;101595.18;;;;-50
2020/01/13 00:10:50;;;;;;;2.15;1.79;;;;;;;18.79;40.24;101592.77;;;;-49
2020/01/13 00:13:50;;;;;;;2.05;1.95;;;;;;;18.79;40.26;101599.45;;;;-49
2020/01/13 00:16:50;;;;;;;1.80;1.70;;;;;;;18.77;40.25;101595.80;;;;-50
2020/01/13 00:19:50;;;;;;;2.09;1.89;;;;;;;18.75;40.31;101596.69;;;;-49
2020/01/13 00:22:50;;;;;;;2.08;1.88;;;;;;;18.74;40.26;101590.54;;;;-49
2020/01/13 00:25:50;;;;;;;1.97;1.79;;;;;;;18.73;40.31;101586.41;;;;-54
2020/01/13 00:28:50;;;;;;;1.91;1.81;;;;;;;18.71;40.29;101578.12;;;;-54
2020/01/13 00:31:50;;;;;;;1.90;1.80;;;;;;;18.70;40.35;101575.11;;;;-54
2020/01/13 00:34:50;;;;;;;1.81;1.71;;;;;;;18.69;40.33;101579.17;;;;-54
2020/01/13 00:37:50;;;;;;;2.14;1.85;;;;;;;18.68;40.32;101578.59;;;;-54
2020/01/13 00:40:50;;;;;;;2.21;2.01;;;;;;;18.67;40.31;101582.27;;;;-54
2020/01/13 00:43:50;;;;;;;2.03;1.89;;;;;;;18.66;40.33;101577.51;;;;-54
2020/01/13 00:46:50;;;;;;;2.00;1.80;;;;;;;18.65;40.32;101578.11;;;;-54
2020/01/13 00:49:50;;;;;;;2.15;1.95;;;;;;;18.63;40.37;101574.23;;;;-54
2020/01/13 00:52:50;;;;;;;2.01;1.87;;;;;;;18.62;40.40;101571.27;;;;-54
2020/01/13 00:55:50;;;;;;;2.10;1.95;;;;;;;18.61;40.39;101563.92;;;;-54
2020/01/13 00:58:50;;;;;;;2.05;1.85;;;;;;;18.60;40.40;101557.03;;;;-49
2020/01/13 01:01:50;;;;;;;2.21;2.01;;;;;;;18.59;40.41;101557.58;;;;-49
2020/01/13 01:04:50;;;;;;;2.01;1.86;;;;;;;18.58;40.40;101557.80;;;;-49
2020/01/13 01:07:50;;;;;;;2.05;1.89;;;;;;;18.57;40.41;101553.27;;;;-54
2020/01/13 01:10:50;;;;;;;2.05;1.91;;;;;;;18.56;40.40;101551.08;;;;-55
2020/01/13 01:13:49;;;;;;;2.23;2.03;;;;;;;18.55;40.38;101544.33;;;;-54
2020/01/13 01:17:08;;;;;;;2.12;1.92;;;;;;;18.54;40.41;101542.18;;;;-54
2020/01/13 01:19:50;;;;;;;2.00;1.80;;;;;;;18.53;40.43;101545.14;;;;-54
2020/01/13 01:22:50;;;;;;;2.05;1.85;;;;;;;18.52;40.43;101546.36;;;;-54
2020/01/13 01:25:49;;;;;;;2.04;1.90;;;;;;;18.51;40.48;101540.81;;;;-54
2020/01/13 01:28:50;;;;;;;1.92;1.82;;;;;;;18.50;40.46;101536.52;;;;-54
2020/01/13 01:32:08;;;;;;;1.81;1.71;;;;;;;18.49;40.47;101539.08;;;;-54
2020/01/13 01:35:34;;;;;;;2.00;1.89;;;;;;;18.47;40.49;101537.39;;;;-54
2020/01/13 01:37:50;;;;;;;2.05;1.89;;;;;;;18.46;40.41;101534.92;;;;-54
2020/01/13 01:40:50;;;;;;;2.14;1.94;;;;;;;18.45;40.50;101529.73;;;;-54
2020/01/13 01:43:50;;;;;;;1.92;1.80;;;;;;;18.44;40.49;101530.61;;;;-53
2020/01/13 01:46:50;;;;;;;1.98;1.86;;;;;;;18.42;40.47;101529.47;;;;-54
2020/01/13 01:50:05;;;;;;;1.96;1.86;;;;;;;18.43;40.46;101534.70;;;;-54
2020/01/13 01:52:50;;;;;;;2.04;1.93;;;;;;;18.42;40.48;101537.16;;;;-54
2020/01/13 01:55:50;;;;;;;1.88;1.78;;;;;;;18.40;40.51;101536.09;;;;-54
2020/01/13 01:58:50;;;;;;;2.03;1.70;;;;;;;18.40;40.53;101536.19;;;;-54
2020/01/13 02:02:14;;;;;;;2.05;1.91;;;;;;;18.38;40.53;101530.55;;;;-54
2020/01/13 02:04:50;;;;;;;2.11;1.99;;;;;;;18.38;40.50;101523.11;;;;-54
2020/01/13 02:07:50;;;;;;;2.13;1.85;;;;;;;18.37;40.46;101521.28;;;;-54
2020/01/13 02:13:50;;;;;;;2.13;1.93;;;;;;;18.35;40.50;101514.05;;;;-54
2020/01/13 02:19:51;;;;;;;1.93;1.83;;;;;;;18.33;40.53;101504.97;;;;-54
2020/01/13 02:22:50;;;;;;;1.88;1.78;;;;;;;18.33;40.51;101506.30;;;;-54
2020/01/13 02:25:51;;;;;;;1.79;1.69;;;;;;;18.32;40.49;101502.39;;;;-54
2020/01/13 02:28:50;;;;;;;1.90;1.76;;;;;;;18.31;40.52;101500.02;;;;-54
2020/01/13 02:31:54;;;;;;;1.87;1.77;;;;;;;18.30;40.50;101494.72;;;;-54
2020/01/13 02:34:51;;;;;;;2.23;2.03;;;;;;;18.29;40.55;101496.38;;;;-54
2020/01/13 02:37:50;;;;;;;1.88;1.77;;;;;;;18.29;40.53;101490.70;;;;-54
2020/01/13 02:43:56;;;;;;;2.01;1.88;;;;;;;18.27;40.52;101489.61;;;;-54
2020/01/13 02:46:54;;;;;;;1.85;1.75;;;;;;;18.26;40.54;101487.20;;;;-53
2020/01/13 02:49:52;;;;;;;1.88;1.78;;;;;;;18.26;40.56;101486.20;;;;-54
2020/01/13 02:52:50;;;;;;;1.91;1.81;;;;;;;18.25;40.55;101478.95;;;;-53
2020/01/13 02:55:50;;;;;;;1.93;1.78;;;;;;;18.25;40.58;101479.51;;;;-54
2020/01/13 02:58:50;;;;;;;2.13;1.93;;;;;;;18.24;40.58;101473.98;;;;-54
2020/01/13 03:02:05;;;;;;;1.98;1.80;;;;;;;18.24;40.57;101478.10;;;;-54
2020/01/13 03:04:56;;;;;;;1.89;1.79;;;;;;;18.22;40.55;101471.69;;;;-54
2020/01/13 03:07:50;;;;;;;2.15;1.98;;;;;;;18.21;40.59;101465.22;;;;-54
2020/01/13 03:10:50;;;;;;;1.89;1.79;;;;;;;18.21;40.59;101466.05;;;;-54
2020/01/13 03:13:50;;;;;;;1.87;1.77;;;;;;;18.19;40.58;101460.73;;;;-54
2020/01/13 03:16:50;;;;;;;1.92;1.82;;;;;;;18.19;40.61;101460.69;;;;-54
2020/01/13 03:19:54;;;;;;;1.81;1.71;;;;;;;18.19;40.63;101454.26;;;;-54
2020/01/13 03:22:50;;;;;;;1.80;1.70;;;;;;;18.18;40.60;101447.50;;;;-54
2020/01/13 03:25:50;;;;;;;1.95;1.83;;;;;;;18.17;40.59;101444.28;;;;-54
2020/01/13 03:29:32;;;;;;;2.09;1.90;;;;;;;18.17;40.57;101444.72;;;;-55
2020/01/13 03:31:54;;;;;;;1.82;1.70;;;;;;;18.17;40.60;101447.18;;;;-53
2020/01/13 03:34:50;;;;;;;1.97;1.87;;;;;;;18.16;40.60;101441.86;;;;-54
2020/01/13 03:37:50;;;;;;;1.90;1.80;;;;;;;18.14;40.59;101438.51;;;;-54
2020/01/13 03:41:02;;;;;;;1.83;1.73;;;;;;;18.14;40.60;101432.97;;;;-54
2020/01/13 03:43:52;;;;;;;1.94;1.80;;;;;;;18.13;40.64;101428.06;;;;-54
2020/01/13 03:47:34;;;;;;;1.83;1.73;;;;;;;18.12;40.64;101430.16;;;;-55
2020/01/13 03:50:54;;;;;;;1.94;1.82;;;;;;;18.11;40.63;101419.23;;;;-54
2020/01/13 03:55:50;;;;;;;2.14;1.94;;;;;;;18.10;40.61;101424.42;;;;-54
2020/01/13 03:59:52;;;;;;;1.95;1.83;;;;;;;18.10;40.63;101422.02;;;;-54
2020/01/13 04:02:50;;;;;;;1.87;1.77;;;;;;;18.09;40.64;101419.27;;;;-54
2020/01/13 04:05:50;;;;;;;1.98;1.88;;;;;;;18.10;40.69;101405.52;;;;-54
2020/01/13 04:08:50;;;;;;;1.89;1.79;;;;;;;18.11;40.70;101393.55;;;;-54
2020/01/13 04:11:50;;;;;;;1.71;1.61;;;;;;;18.10;40.67;101389.27;;;;-54
2020/01/13 04:14:50;;;;;;;1.79;1.69;;;;;;;18.12;40.66;101392.55;;;;-54
2020/01/13 04:17:50;;;;;;;2.01;1.84;;;;;;;18.14;40.59;101396.92;;;;-54
2020/01/13 04:20:50;;;;;;;1.93;1.73;;;;;;;18.17;40.69;101398.19;;;;-54
2020/01/13 04:23:50;;;;;;;1.79;1.69;;;;;;;18.18;40.80;101390.28;;;;-54
2020/01/13 04:26:50;;;;;;;1.87;1.77;;;;;;;18.21;40.73;101390.37;;;;-53
2020/01/13 04:29:50;;;;;;;1.79;1.69;;;;;;;18.23;40.76;101391.77;;;;-54
2020/01/13 04:32:50;;;;;;;1.81;1.71;;;;;;;18.26;40.74;101388.48;;;;-54
2020/01/13 04:35:50;;;;;;;1.80;1.70;;;;;;;18.30;40.73;101385.91;;;;-54
2020/01/13 04:38:50;;;;;;;1.86;1.76;;;;;;;18.34;40.74;101381.09;;;;-55
2020/01/13 04:41:52;;;;;;;1.84;1.74;;;;;;;18.38;40.72;101379.86;;;;-54
2020/01/13 04:44:50;;;;;;;1.89;1.79;;;;;;;18.42;40.79;101376.31;;;;-54
2020/01/13 04:47:50;;;;;;;1.85;1.71;;;;;;;18.48;40.80;101378.13;;;;-54
2020/01/13 04:50:50;;;;;;;1.99;1.85;;;;;;;18.51;40.84;101372.82;;;;-55
2020/01/13 04:53:51;;;;;;;1.85;1.75;;;;;;;18.54;40.89;101366.86;;;;-54
2020/01/13 04:56:51;;;;;;;2.17;1.77;;;;;;;18.59;40.85;101373.77;;;;-54
2020/01/13 04:59:51;;;;;;;1.74;1.64;;;;;;;18.62;40.92;101366.39;;;;-54
2020/01/13 05:02:51;;;;;;;1.73;1.62;;;;;;;18.65;40.86;101364.12;;;;-55
2020/01/13 05:05:50;;;;;;;1.80;1.70;;;;;;;18.68;40.87;101355.93;;;;-54
2020/01/13 05:08:50;;;;;;;1.97;1.83;;;;;;;18.71;40.88;101351.89;;;;-55
2020/01/13 05:11:50;;;;;;;1.94;1.77;;;;;;;18.73;40.88;101351.73;;;;-55
2020/01/13 05:14:50;;;;;;;1.79;1.69;;;;;;;18.76;40.93;101347.41;;;;-54
2020/01/13 05:17:50;;;;;;;1.77;1.67;;;;;;;18.80;40.91;101346.31;;;;-55
2020/01/13 05:20:52;;;;;;;1.71;1.61;;;;;;;18.82;40.92;101351.18;;;;-54
2020/01/13 05:23:50;;;;;;;1.77;1.67;;;;;;;18.86;40.89;101351.81;;;;-56
2020/01/13 05:26:50;;;;;;;1.70;1.60;;;;;;;18.88;40.88;101354.89;;;;-55
2020/01/13 05:29:50;;;;;;;1.77;1.67;;;;;;;18.91;40.84;101349.56;;;;-55
2020/01/13 05:32:50;;;;;;;1.79;1.69;;;;;;;18.94;40.85;101340.92;;;;-55
2020/01/13 05:35:50;;;;;;;1.73;1.63;;;;;;;18.96;40.89;101336.86;;;;-55
2020/01/13 05:38:50;;;;;;;1.75;1.65;;;;;;;18.99;40.88;101335.53;;;;-55
2020/01/13 05:41:50;;;;;;;1.71;1.61;;;;;;;19.00;40.87;101328.40;;;;-55
2020/01/13 05:44:50;;;;;;;1.70;1.60;;;;;;;19.03;40.87;101329.86;;;;-55
2020/01/13 05:47:50;;;;;;;1.80;1.70;;;;;;;19.06;40.76;101335.30;;;;-55
2020/01/13 05:50:50;;;;;;;1.80;1.70;;;;;;;19.07;40.83;101331.66;;;;-55
2020/01/13 05:53:50;;;;;;;1.71;1.61;;;;;;;19.08;40.80;101329.16;;;;-55
2020/01/13 05:56:50;;;;;;;1.78;1.68;;;;;;;19.09;40.81;101324.20;;;;-55
2020/01/13 05:59:50;;;;;;;1.85;1.75;;;;;;;19.12;40.83;101320.53;;;;-55
2020/01/13 06:02:50;;;;;;;1.71;1.61;;;;;;;19.14;40.78;101317.28;;;;-55
2020/01/13 06:05:50;;;;;;;1.67;1.57;;;;;;;19.17;40.68;101318.47;;;;-55
2020/01/13 06:08:50;;;;;;;1.80;1.70;;;;;;;19.18;40.72;101307.87;;;;-55
2020/01/13 06:11:50;;;;;;;1.79;1.60;;;;;;;19.20;40.71;101301.00;;;;-55
2020/01/13 06:14:50;;;;;;;1.73;1.63;;;;;;;19.21;40.70;101295.61;;;;-54
2020/01/13 06:17:50;;;;;;;1.73;1.63;;;;;;;19.22;40.70;101294.10;;;;-55
2020/01/13 06:20:50;;;;;;;1.81;1.71;;;;;;;19.26;40.73;101293.21;;;;-55
2020/01/13 06:24:03;;;;;;;2.19;1.67;;;;;;;19.30;41.11;101292.44;;;;-61
2020/01/13 06:26:51;;;;;;;2.11;1.91;;;;;;;19.33;40.56;101288.05;;;;-52
2020/01/13 06:29:50;;;;;;;2.77;1.83;;;;;;;19.38;40.86;101285.61;;;;-52
2020/01/13 06:32:56;;;;;;;2.85;1.94;;;;;;;19.40;41.37;101286.06;;;;-45
2020/01/13 06:35:56;;;;;;;1.74;1.64;;;;;;;19.43;41.38;101288.63;;;;-51
2020/01/13 06:38:50;;;;;;;3.07;1.79;;;;;;;19.46;41.29;101279.09;;;;-49
2020/01/13 06:41:50;;;;;;;2.82;1.75;;;;;;;19.51;41.66;101279.84;;;;-49
2020/01/13 06:44:50;;;;;;;1.75;1.65;;;;;;;19.53;41.37;101271.73;;;;-49
2020/01/13 06:47:50;;;;;;;1.83;1.60;;;;;;;19.57;41.51;101271.13;;;;-49
2020/01/13 06:51:03;;;;;;;1.93;1.71;;;;;;;19.60;41.49;101272.60;;;;-51
2020/01/13 06:54:00;;;;;;;2.27;1.79;;;;;;;19.62;41.16;101267.11;;;;-48
2020/01/13 06:56:50;;;;;;;2.11;1.81;;;;;;;19.62;41.22;101263.84;;;;-50
2020/01/13 06:59:50;;;;;;;2.15;1.80;;;;;;;19.64;41.41;101261.53;;;;-49
2020/01/13 07:02:52;;;;;;;2.21;1.71;;;;;;;19.65;41.38;101262.54;;;;-50
2020/01/13 07:05:57;;;;;;;2.55;1.67;;;;;;;19.67;41.03;101265.45;;;;-46
2020/01/13 07:08:50;;;;;;;2.89;1.69;;;;;;;19.72;41.64;101263.56;;;;-48
2020/01/13 07:11:50;;;;;;;5.97;1.65;;;;;;;19.73;41.65;101261.82;;;;-50
2020/01/13 07:14:50;;;;;;;1.86;1.69;;;;;;;19.73;41.31;101262.83;;;;-48
2020/01/13 07:17:50;;;;;;;1.78;1.66;;;;;;;19.71;40.96;101261.38;;;;-48
2020/01/13 07:23:50;;;;;;;4.01;1.73;;;;;;;19.69;40.82;101269.97;;;;-48
2020/01/13 07:26:50;;;;;;;3.33;1.83;;;;;;;19.70;40.94;101273.05;;;;-48
2020/01/13 07:29:50;;;;;;;1.77;1.63;;;;;;;19.71;41.10;101273.79;;;;-47
2020/01/13 07:32:50;;;;;;;1.99;1.72;;;;;;;19.71;41.08;101273.95;;;;-48
2020/01/13 07:35:50;;;;;;;1.93;1.73;;;;;;;19.72;41.07;101274.33;;;;-49
2020/01/13 07:38:50;;;;;;;1.91;1.79;;;;;;;19.74;41.16;101271.84;;;;-47
2020/01/13 07:41:50;;;;;;;2.26;1.78;;;;;;;19.76;41.13;101273.17;;;;-49
2020/01/13 07:44:50;;;;;;;1.79;1.69;;;;;;;19.76;41.25;101274.52;;;;-50
2020/01/13 07:47:50;;;;;;;2.52;1.71;;;;;;;19.77;41.24;101272.83;;;;-47
2020/01/13 07:50:50;;;;;;;2.99;1.85;;;;;;;19.78;41.14;101274.97;;;;-49
2020/01/13 07:53:50;;;;;;;1.94;1.75;;;;;;;19.79;41.26;101267.98;;;;-49
2020/01/13 07:56:50;;;;;;;1.88;1.77;;;;;;;19.83;41.39;101263.11;;;;-49
2020/01/13 07:59:50;;;;;;;2.61;1.83;;;;;;;19.83;41.34;101265.52;;;;-46
2020/01/13 08:02:50;;;;;;;1.84;1.71;;;;;;;19.85;41.29;101260.50;;;;-47
2020/01/13 08:05:50;;;;;;;2.29;1.79;;;;;;;19.86;41.32;101268.38;;;;-50
2020/01/13 08:08:50;;;;;;;1.91;1.80;;;;;;;19.88;41.16;101266.58;;;;-51
2020/01/13 08:11:50;;;;;;;2.87;1.88;;;;;;;19.88;41.32;101271.91;;;;-47
2020/01/13 08:14:50;;;;;;;2.41;1.78;;;;;;;19.90;41.39;101271.02;;;;-49
2020/01/13 08:17:50;;;;;;;1.94;1.83;;;;;;;19.90;41.39;101270.34;;;;-49
2020/01/13 08:20:50;;;;;;;2.03;1.92;;;;;;;19.92;41.35;101264.30;;;;-53
2020/01/13 08:23:50;;;;;;;2.08;1.88;;;;;;;19.92;41.23;101260.63;;;;-49
2020/01/13 08:26:50;;;;;;;1.87;1.77;;;;;;;19.94;41.16;101253.80;;;;-49
2020/01/13 08:29:52;;;;;;;2.14;1.87;;;;;;;19.94;41.32;101249.48;;;;-48
2020/01/13 08:32:50;;;;;;;2.70;1.90;;;;;;;19.97;41.36;101247.97;;;;-47
2020/01/13 08:35:50;;;;;;;2.12;1.91;;;;;;;19.99;41.37;101241.09;;;;-47
2020/01/13 08:38:50;;;;;;;2.08;1.87;;;;;;;19.99;41.12;101232.37;;;;-46
2020/01/13 08:41:50;;;;;;;1.92;1.72;;;;;;;20.00;41.19;101229.69;;;;-47
2020/01/13 08:44:50;;;;;;;2.42;1.98;;;;;;;19.99;41.09;101228.30;;;;-48
2020/01/13 08:47:50;;;;;;;2.63;1.90;;;;;;;20.02;41.16;101231.57;;;;-47
2020/01/13 08:50:50;;;;;;;3.96;1.95;;;;;;;20.03;41.08;101231.75;;;;-47
2020/01/13 08:53:50;;;;;;;3.17;2.27;;;;;;;20.03;41.23;101234.70;;;;-49
2020/01/13 08:56:50;;;;;;;3.17;2.07;;;;;;;20.04;41.10;101235.49;;;;-49
2020/01/13 08:59:50;;;;;;;2.75;2.23;;;;;;;20.05;41.32;101229.22;;;;-51
2020/01/13 09:02:50;;;;;;;3.45;2.30;;;;;;;20.07;40.96;101225.93;;;;-49
2020/01/13 09:05:50;;;;;;;5.20;2.14;;;;;;;20.09;41.45;101225.38;;;;-49
2020/01/13 09:08:50;;;;;;;6.28;2.43;;;;;;;20.08;40.84;101218.95;;;;-49
2020/01/13 09:11:50;;;;;;;3.85;2.03;;;;;;;20.08;40.78;101223.47;;;;-49
2020/01/13 09:14:50;;;;;;;2.31;2.03;;;;;;;20.06;40.65;101229.17;;;;-49
2020/01/13 09:17:50;;;;;;;2.37;2.13;;;;;;;20.08;40.73;101234.31;;;;-50
2020/01/13 09:20:50;;;;;;;6.70;2.29;;;;;;;20.08;40.76;101234.03;;;;-50
2020/01/13 09:23:50;;;;;;;4.70;2.23;;;;;;;20.12;41.01;101234.19;;;;-48
2020/01/13 09:26:50;;;;;;;4.57;2.31;;;;;;;20.09;40.56;101227.33;;;;-49
2020/01/13 09:29:50;;;;;;;4.20;2.35;;;;;;;20.07;40.67;101228.06;;;;-49
2020/01/13 09:33:16;;;;;;;2.84;2.03;;;;;;;20.04;40.58;101221.95;;;;-49
2020/01/13 09:35:50;;;;;;;3.75;2.30;;;;;;;20.02;40.54;101223.86;;;;-49
2020/01/13 09:38:50;;;;;;;2.60;1.98;;;;;;;20.01;40.47;101221.20;;;;-49
2020/01/13 09:41:50;;;;;;;2.21;2.01;;;;;;;20.00;40.44;101222.75;;;;-49
2020/01/13 09:44:50;;;;;;;3.54;2.09;;;;;;;19.99;40.48;101221.85;;;;-48
2020/01/13 09:47:50;;;;;;;4.22;2.09;;;;;;;19.99;40.48;101220.23;;;;-49
2020/01/13 09:50:50;;;;;;;2.35;2.00;;;;;;;19.97;40.45;101212.26;;;;-49
2020/01/13 09:53:50;;;;;;;2.32;1.90;;;;;;;19.97;40.45;101200.64;;;;-49
2020/01/13 09:56:54;;;;;;;3.43;1.89;;;;;;;19.97;40.52;101199.97;;;;-49
2020/01/13 09:59:51;;;;;;;2.27;2.02;;;;;;;19.96;40.49;101197.01;;;;-49
2020/01/13 10:02:50;;;;;;;3.43;1.96;;;;;;;19.95;40.44;101192.89;;;;-49
2020/01/13 10:05:50;;;;;;;2.91;1.81;;;;;;;19.94;40.44;101184.09;;;;-49
2020/01/13 10:08:50;;;;;;;4.37;2.08;;;;;;;19.94;40.56;101176.57;;;;-48
2020/01/13 10:11:50;;;;;;;7.23;2.31;;;;;;;19.93;40.61;101180.88;;;;-48
2020/01/13 10:14:50;;;;;;;2.94;2.40;;;;;;;19.91;40.40;101174.88;;;;-48
2020/01/13 10:17:50;;;;;;;2.50;2.30;;;;;;;19.92;40.32;101172.77;;;;-48
2020/01/13 10:20:50;;;;;;;3.98;2.67;;;;;;;19.91;40.08;101163.44;;;;-49
2020/01/13 10:23:50;;;;;;;2.91;2.61;;;;;;;19.93;39.92;101155.16;;;;-50
2020/01/13 10:26:50;;;;;;;3.56;2.46;;;;;;;19.93;39.89;101148.34;;;;-50
2020/01/13 10:29:50;;;;;;;3.59;2.28;;;;;;;19.94;40.01;101148.55;;;;-50
2020/01/13 10:32:50;;;;;;;3.58;2.24;;;;;;;19.94;40.11;101152.88;;;;-50
2020/01/13 10:35:50;;;;;;;3.07;2.33;;;;;;;19.96;40.14;101157.40;;;;-50
2020/01/13 10:38:50;;;;;;;3.07;2.20;;;;;;;19.96;40.08;101152.20;;;;-50
2020/01/13 10:41:50;;;;;;;2.41;2.21;;;;;;;19.97;40.16;101146.03;;;;-50
2020/01/13 10:44:50;;;;;;;2.37;2.17;;;;;;;19.98;40.10;101142.75;;;;-50
2020/01/13 10:47:50;;;;;;;5.67;2.50;;;;;;;20.00;40.28;101144.17;;;;-49
2020/01/13 10:50:50;;;;;;;3.47;2.49;;;;;;;20.02;40.47;101126.84;;;;-52
2020/01/13 10:53:50;;;;;;;3.77;2.50;;;;;;;20.02;40.31;101118.56;;;;-47
2020/01/13 10:56:50;;;;;;;3.91;2.66;;;;;;;20.04;40.34;101115.22;;;;-48
2020/01/13 10:59:50;;;;;;;2.85;2.53;;;;;;;20.09;40.61;101109.43;;;;-48
2020/01/13 11:02:50;;;;;;;5.01;2.49;;;;;;;20.10;40.59;101108.16;;;;-47
2020/01/13 11:05:50;;;;;;;3.27;2.38;;;;;;;20.15;41.00;101103.94;;;;-47
2020/01/13 11:08:50;;;;;;;5.31;2.74;;;;;;;20.15;40.85;101101.27;;;;-47
2020/01/13 11:11:50;;;;;;;3.77;2.38;;;;;;;20.16;40.77;101095.55;;;;-49
2020/01/13 11:14:50;;;;;;;5.69;2.58;;;;;;;20.18;40.65;101093.44;;;;-48
2020/01/13 11:17:50;;;;;;;3.58;2.42;;;;;;;20.18;40.67;101090.02;;;;-48
2020/01/13 11:23:52;;;;;;;5.12;2.40;;;;;;;20.19;40.68;101084.36;;;;-50
2020/01/13 11:26:51;;;;;;;4.48;2.41;;;;;;;20.20;40.62;101073.00;;;;-46
2020/01/13 11:29:50;;;;;;;2.95;2.45;;;;;;;20.19;40.66;101069.00;;;;-51
2020/01/13 11:32:50;;;;;;;3.99;2.49;;;;;;;20.20;40.33;101071.11;;;;-49
2020/01/13 11:35:50;;;;;;;3.48;2.51;;;;;;;20.22;40.54;101068.24;;;;-50
2020/01/13 11:38:50;;;;;;;5.13;2.47;;;;;;;20.22;40.65;101069.77;;;;-52
2020/01/13 11:41:50;;;;;;;4.15;2.30;;;;;;;20.25;40.62;101068.80;;;;-49
2020/01/13 11:44:50;;;;;;;8.02;2.75;;;;;;;20.24;40.44;101064.94;;;;-47
2020/01/13 11:47:50;;;;;;;5.85;2.58;;;;;;;20.27;40.57;101061.08;;;;-48
2020/01/13 11:50:50;;;;;;;3.74;2.23;;;;;;;20.26;40.67;101053.80;;;;-50
2020/01/13 11:53:50;;;;;;;2.55;2.21;;;;;;;20.28;40.71;101054.42;;;;-50
2020/01/13 11:56:50;;;;;;;2.90;2.21;;;;;;;20.28;40.73;101050.72;;;;-49
2020/01/13 11:59:50;;;;;;;4.23;2.25;;;;;;;20.30;40.81;101046.34;;;;-46
2020/01/13 12:02:50;;;;;;;2.94;2.29;;;;;;;20.31;40.84;101042.38;;;;-48
2020/01/13 12:05:50;;;;;;;3.49;2.32;;;;;;;20.31;40.55;101036.23;;;;-48
2020/01/13 12:08:50;;;;;;;4.94;2.17;;;;;;;20.31;40.60;101034.16;;;;-52
2020/01/13 12:11:50;;;;;;;2.67;2.29;;;;;;;20.31;40.63;101021.86;;;;-46
2020/01/13 12:14:50;;;;;;;4.18;2.30;;;;;;;20.32;40.70;101014.08;;;;-48
2020/01/13 12:17:50;;;;;;;2.71;2.17;;;;;;;20.34;40.90;101013.73;;;;-50
2020/01/13 12:20:50;;;;;;;4.15;2.26;;;;;;;20.34;40.64;101008.55;;;;-49
2020/01/13 12:23:50;;;;;;;4.84;2.28;;;;;;;20.36;40.81;101001.36;;;;-52
2020/01/13 12:27:25;;;;;;;3.19;2.28;;;;;;;20.36;40.69;100989.28;;;;-50
2020/01/13 12:29:50;;;;;;;5.21;2.11;;;;;;;20.40;40.69;100992.50;;;;-49
2020/01/13 12:32:50;;;;;;;4.83;2.30;;;;;;;20.38;40.44;100984.02;;;;-49
2020/01/13 12:35:50;;;;;;;4.71;2.15;;;;;;;20.37;40.33;100978.82;;;;-49
2020/01/13 12:38:50;;;;;;;4.60;2.19;;;;;;;20.36;40.42;100977.09;;;;-48
2020/01/13 12:41:56;;;;;;;5.01;2.18;;;;;;;20.37;40.60;100961.72;;;;-49
2020/01/13 12:44:52;;;;;;;2.37;2.11;;;;;;;20.39;40.54;100957.55;;;;-49
2020/01/13 12:47:50;;;;;;;4.65;2.19;;;;;;;20.37;40.32;100949.73;;;;-49
2020/01/13 12:50:50;;;;;;;2.87;2.09;;;;;;;20.36;40.29;100938.34;;;;-50
2020/01/13 12:53:50;;;;;;;3.31;2.11;;;;;;;20.35;40.26;100940.08;;;;-50
2020/01/13 12:56:50;;;;;;;2.51;2.09;;;;;;;20.34;40.27;100925.27;;;;-50
2020/01/13 12:59:50;;;;;;;2.87;2.04;;;;;;;20.32;40.18;100919.09;;;;-50
2020/01/13 13:02:50;;;;;;;2.29;1.94;;;;;;;20.33;40.14;100910.69;;;;-50
2020/01/13 13:05:50;;;;;;;3.34;1.97;;;;;;;20.31;40.16;100913.11;;;;-50
2020/01/13 13:08:50;;;;;;;2.69;1.93;;;;;;;20.31;40.14;100905.23;;;;-50
2020/01/13 13:11:50;;;;;;;2.21;2.01;;;;;;;20.31;40.19;100901.64;;;;-50
2020/01/13 13:14:50;;;;;;;2.30;1.93;;;;;;;20.31;40.13;100911.16;;;;-50
2020/01/13 13:17:50;;;;;;;3.03;2.12;;;;;;;20.30;40.09;100909.64;;;;-50
2020/01/13 13:20:50;;;;;;;3.19;1.97;;;;;;;20.31;40.10;100887.17;;;;-50
2020/01/13 13:23:50;;;;;;;2.61;2.07;;;;;;;20.30;40.12;100878.17;;;;-50
2020/01/13 13:26:50;;;;;;;1.91;1.74;;;;;;;20.30;40.12;100875.72;;;;-50
2020/01/13 13:29:50;;;;;;;2.57;1.99;;;;;;;20.30;40.08;100893.38;;;;-50
2020/01/13 13:35:50;;;;;;;2.24;1.90;;;;;;;20.28;40.09;100889.35;;;;-50
2020/01/13 13:38:50;;;;;;;2.82;1.99;;;;;;;20.29;40.10;100879.17;;;;-50
2020/01/13 13:41:50;;;;;;;2.62;1.90;;;;;;;20.31;40.38;100879.45;;;;-49
2020/01/13 13:44:50;;;;;;;2.10;1.91;;;;;;;20.32;40.62;100875.48;;;;-48
2020/01/13 13:47:50;;;;;;;3.13;1.92;;;;;;;20.33;40.33;100868.86;;;;-50
2020/01/13 13:50:50;;;;;;;2.02;1.84;;;;;;;20.32;40.21;100872.17;;;;-50
2020/01/13 13:53:50;;;;;;;1.93;1.82;;;;;;;20.31;40.21;100872.95;;;;-50
2020/01/13 13:56:50;;;;;;;2.19;1.77;;;;;;;20.31;40.15;100869.00;;;;-50
2020/01/13 13:59:50;;;;;;;2.05;1.85;;;;;;;20.30;40.13;100871.36;;;;-50
2020/01/13 14:02:50;;;;;;;2.91;1.87;;;;;;;20.29;40.10;100871.85;;;;-48
2020/01/13 14:05:50;;;;;;;2.65;1.95;;;;;;;20.29;40.13;100863.20;;;;-48
2020/01/13 14:08:50;;;;;;;1.82;1.72;;;;;;;20.28;40.10;100851.45;;;;-48
2020/01/13 14:11:50;;;;;;;2.09;1.89;;;;;;;20.28;40.10;100846.71;;;;-50
2020/01/13 14:14:50;;;;;;;2.79;1.97;;;;;;;20.27;40.10;100846.44;;;;-50
2020/01/13 14:17:50;;;;;;;2.05;1.81;;;;;;;20.27;40.09;100844.05;;;;-50
2020/01/13 14:20:50;;;;;;;1.89;1.70;;;;;;;20.26;40.04;100847.95;;;;-50
2020/01/13 14:23:50;;;;;;;3.75;2.11;;;;;;;20.27;40.05;100850.08;;;;-50
2020/01/13 14:26:50;;;;;;;2.44;1.84;;;;;;;20.26;40.04;100855.04;;;;-50
2020/01/13 14:29:50;;;;;;;2.58;1.87;;;;;;;20.26;40.11;100848.19;;;;-50
2020/01/13 14:32:50;;;;;;;1.95;1.79;;;;;;;20.25;40.01;100840.23;;;;-50
2020/01/13 14:35:50;;;;;;;2.00;1.80;;;;;;;20.24;40.03;100827.27;;;;-50
2020/01/13 14:38:50;;;;;;;3.57;1.79;;;;;;;20.25;40.04;100823.02;;;;-50
2020/01/13 14:41:50;;;;;;;1.91;1.72;;;;;;;20.25;40.02;100825.03;;;;-50
2020/01/13 14:44:50;;;;;;;2.33;1.81;;;;;;;20.26;40.12;100827.70;;;;-47
2020/01/13 14:47:50;;;;;;;4.56;1.93;;;;;;;20.25;40.48;100828.49;;;;-48
2020/01/13 14:50:50;;;;;;;2.54;1.92;;;;;;;20.27;40.56;100828.25;;;;-53
2020/01/13 14:53:50;;;;;;;4.56;2.01;;;;;;;20.30;40.42;100827.25;;;;-50
2020/01/13 14:56:50;;;;;;;4.03;2.00;;;;;;;20.32;40.50;100835.09;;;;-48
2020/01/13 14:59:50;;;;;;;3.73;1.97;;;;;;;20.32;40.50;100836.73;;;;-48
2020/01/13 15:02:50;;;;;;;3.74;1.90;;;;;;;20.31;40.53;100835.78;;;;-48
2020/01/13 15:05:50;;;;;;;3.06;2.17;;;;;;;20.32;40.50;100835.22;;;;-48
2020/01/13 15:08:50;;;;;;;1.99;1.83;;;;;;;20.32;40.60;100845.91;;;;-48
2020/01/13 15:11:50;;;;;;;4.47;1.92;;;;;;;20.34;40.60;100848.01;;;;-56
2020/01/13 15:14:50;;;;;;;3.77;2.07;;;;;;;20.35;40.57;100845.03;;;;-57
2020/01/13 15:17:50;;;;;;;3.87;1.92;;;;;;;20.36;40.58;100841.73;;;;-50
2020/01/13 15:20:50;;;;;;;2.27;1.95;;;;;;;20.37;40.55;100844.28;;;;-50
2020/01/13 15:23:50;;;;;;;2.30;1.90;;;;;;;20.38;40.53;100849.37;;;;-52
2020/01/13 15:26:50;;;;;;;2.37;1.81;;;;;;;20.39;40.44;100852.88;;;;-52
2020/01/13 15:29:50;;;;;;;3.23;1.85;;;;;;;20.39;40.46;100858.58;;;;-54
2020/01/13 15:32:50;;;;;;;2.14;1.86;;;;;;;20.39;40.28;100860.16;;;;-55
2020/01/13 15:35:53;;;;;;;2.98;2.06;;;;;;;20.38;40.17;100863.45;;;;-54
2020/01/13 15:38:50;;;;;;;2.73;1.93;;;;;;;20.38;40.15;100862.38;;;;-55
2020/01/13 15:41:50;;;;;;;2.28;2.08;;;;;;;20.36;40.05;100854.97;;;;-55
2020/01/13 15:44:50;;;;;;;2.65;1.94;;;;;;;20.35;40.04;100853.76;;;;-54
2020/01/13 15:47:57;;;;;;;3.12;2.18;;;;;;;20.32;40.26;100852.44;;;;-56
2020/01/13 15:51:04;;;;;;;3.03;2.29;;;;;;;20.30;40.38;100861.44;;;;-64
2020/01/13 15:53:56;;;;;;;3.15;2.32;;;;;;;20.28;40.47;100858.55;;;;-52
2020/01/13 15:56:52;;;;;;;3.07;2.31;;;;;;;20.28;40.61;100862.14;;;;-46
2020/01/13 15:59:50;;;;;;;3.37;2.15;;;;;;;20.27;40.71;100860.25;;;;-49
2020/01/13 16:02:50;;;;;;;3.37;2.23;;;;;;;20.26;40.65;100863.28;;;;-48
2020/01/13 16:05:50;;;;;;;2.99;2.16;;;;;;;20.27;40.72;100865.84;;;;-48
2020/01/13 16:08:50;;;;;;;2.47;2.18;;;;;;;20.26;40.62;100868.66;;;;-47
2020/01/13 16:11:50;;;;;;;4.15;2.52;;;;;;;20.27;40.90;100861.25;;;;-51
2020/01/13 16:14:50;;;;;;;3.79;2.35;;;;;;;20.30;40.64;100856.97;;;;-48
2020/01/13 16:17:50;;;;;;;4.07;2.15;;;;;;;20.33;40.76;100854.16;;;;-46
2020/01/13 16:20:50;;;;;;;2.63;2.20;;;;;;;20.35;40.74;100855.87;;;;-46
2020/01/13 16:23:50;;;;;;;5.12;2.20;;;;;;;20.41;40.97;100856.95;;;;-52
2020/01/13 16:26:50;;;;;;;2.35;2.08;;;;;;;20.42;41.17;100849.89;;;;-50
2020/01/13 16:29:50;;;;;;;5.65;2.18;;;;;;;20.43;41.19;100844.67;;;;-51
2020/01/13 16:32:50;;;;;;;2.49;2.09;;;;;;;20.46;41.09;100831.73;;;;-47
2020/01/13 16:36:25;;;;;;;3.30;2.13;;;;;;;20.47;41.01;100826.97;;;;-46
2020/01/13 16:38:51;;;;;;;2.54;2.11;;;;;;;20.49;40.80;100817.97;;;;-51
2020/01/13 16:41:50;;;;;;;4.09;2.17;;;;;;;20.46;40.63;100813.50;;;;-53
2020/01/13 16:44:50;;;;;;;2.94;2.10;;;;;;;20.47;40.41;100803.66;;;;-54
2020/01/13 16:47:50;;;;;;;2.77;2.14;;;;;;;20.45;40.41;100801.31;;;;-52
2020/01/13 16:50:50;;;;;;;3.29;2.39;;;;;;;20.46;40.49;100796.66;;;;-45
2020/01/13 16:54:10;;;;;;;4.60;2.37;;;;;;;20.47;40.74;100787.20;;;;-50
2020/01/13 16:56:50;;;;;;;2.99;2.21;;;;;;;20.49;40.79;100793.73;;;;-47
2020/01/13 16:59:49;;;;;;;3.53;2.35;;;;;;;20.51;40.81;100789.58;;;;-47
2020/01/13 17:02:50;;;;;;;3.97;2.24;;;;;;;20.52;40.98;100779.99;;;;-47
2020/01/13 17:05:50;;;;;;;2.97;2.39;;;;;;;20.55;40.87;100776.56;;;;-46
2020/01/13 17:08:57;;;;;;;3.24;2.27;;;;;;;20.55;40.84;100767.06;;;;-46